Decoded Metar for PASN (ST. PAUL ISLAND in AK, USA) (IATA:SNP) | Meteo·Mobile Aviation Weather
aviador You're here:

PASN Decoded Metar

ST. PAUL ISLAND in AK, USA
Report Time2018-11-16 17:53:00
UTC Time2018-11-16 18:51:01
Flight Rules vfr VFR
Wind050° at 05 kt
W.Decomp.*RWY 36: 3.8 kt HW 3.2 kt RCW
W.Rank050° ranks 10
Current wind is below 050° avg. (12.8)
Visibility9999 m
Phenomena:N/A
Clouds:Few 027 Hf
Overcast 037 Hf
Expected CloudBase > 800 ft AGL from Temp-Dew spread
Ceiling3,700 ft
Temp01°C (ISA -14)
Dew Point-1°C (87% RH)
AAT-2.9°C
QNH1001 hPa
Density Alt-1,099 ft
Elevation95 ft
Report Wrong Elevation
Raw Report
PASN 161753Z AUTO 05005KT 10SM FEW027 OVC037 01/M01 A2957 RMK AO2
SLP014 T00061011 10006 21022 56010 TSNO=

Extra information for PASN:More info

Metar Taf Metar & Taf Last 4 Metars F.Rules Stats Wind Profile Meteogram Temp Stats Airport Information Weather charts Add Link Nearby VenuesMetar ALERT Operation Metar Decoded Social comments

AIRNAV info for PASN